sensor_id;sensor_type;location;lat;lon;timestamp;P1;durP1;ratioP1;P2;durP2;ratioP2
2602;SDS011;1311;47.966;7.958;2023-04-03T00:01:19;1.57;;;1.47;;
2602;SDS011;1311;47.966;7.958;2023-04-03T00:03:46;1.67;;;1.40;;
2602;SDS011;1311;47.966;7.958;2023-04-03T00:06:13;1.50;;;1.40;;
2602;SDS011;1311;47.966;7.958;2023-04-03T00:08:40;1.80;;;1.60;;
2602;SDS011;1311;47.966;7.958;2023-04-03T00:11:07;1.67;;;1.40;;
2602;SDS011;1311;47.966;7.958;2023-04-03T00:13:34;1.47;;;1.37;;
2602;SDS011;1311;47.966;7.958;2023-04-03T00:16:03;1.37;;;1.27;;
2602;SDS011;1311;47.966;7.958;2023-04-03T00:18:30;1.43;;;1.30;;
2602;SDS011;1311;47.966;7.958;2023-04-03T00:20:57;1.03;;;1.00;;
2602;SDS011;1311;47.966;7.958;2023-04-03T00:23:24;1.40;;;1.30;;
2602;SDS011;1311;47.966;7.958;2023-04-03T00:25:51;0.90;;;0.90;;
2602;SDS011;1311;47.966;7.958;2023-04-03T00:28:18;1.20;;;1.10;;
2602;SDS011;1311;47.966;7.958;2023-04-03T00:30:45;1.30;;;1.20;;
2602;SDS011;1311;47.966;7.958;2023-04-03T00:33:13;1.20;;;1.10;;
2602;SDS011;1311;47.966;7.958;2023-04-03T00:35:40;1.47;;;1.30;;
2602;SDS011;1311;47.966;7.958;2023-04-03T00:38:07;1.03;;;1.00;;
2602;SDS011;1311;47.966;7.958;2023-04-03T00:40:35;1.30;;;1.20;;
2602;SDS011;1311;47.966;7.958;2023-04-03T00:43:05;2.73;;;1.40;;
2602;SDS011;1311;47.966;7.958;2023-04-03T00:45:38;1.50;;;1.40;;
2602;SDS011;1311;47.966;7.958;2023-04-03T00:48:06;1.10;;;1.00;;
2602;SDS011;1311;47.966;7.958;2023-04-03T00:50:39;1.30;;;1.20;;
2602;SDS011;1311;47.966;7.958;2023-04-03T00:53:08;1.57;;;1.47;;
2602;SDS011;1311;47.966;7.958;2023-04-03T00:55:40;1.33;;;1.23;;
2602;SDS011;1311;47.966;7.958;2023-04-03T00:58:09;1.70;;;1.40;;
2602;SDS011;1311;47.966;7.958;2023-04-03T01:00:38;1.20;;;1.10;;
2602;SDS011;1311;47.966;7.958;2023-04-03T01:03:09;1.50;;;1.40;;
2602;SDS011;1311;47.966;7.958;2023-04-03T01:05:35;1.60;;;1.50;;
2602;SDS011;1311;47.966;7.958;2023-04-03T01:08:04;1.60;;;1.37;;
2602;SDS011;1311;47.966;7.958;2023-04-03T01:10:31;1.70;;;1.60;;
2602;SDS011;1311;47.966;7.958;2023-04-03T01:12:58;1.20;;;1.10;;
2602;SDS011;1311;47.966;7.958;2023-04-03T01:15:26;1.90;;;1.70;;
2602;SDS011;1311;47.966;7.958;2023-04-03T01:17:55;1.90;;;1.63;;
2602;SDS011;1311;47.966;7.958;2023-04-03T01:20:40;1.87;;;1.77;;
2602;SDS011;1311;47.966;7.958;2023-04-03T01:23:36;2.03;;;1.30;;
2602;SDS011;1311;47.966;7.958;2023-04-03T01:26:09;1.90;;;1.27;;
2602;SDS011;1311;47.966;7.958;2023-04-03T01:28:37;1.23;;;1.10;;
2602;SDS011;1311;47.966;7.958;2023-04-03T01:31:06;1.17;;;1.07;;
2602;SDS011;1311;47.966;7.958;2023-04-03T01:33:41;1.53;;;1.43;;
2602;SDS011;1311;47.966;7.958;2023-04-03T01:36:09;2.00;;;1.80;;
2602;SDS011;1311;47.966;7.958;2023-04-03T01:38:39;1.33;;;1.10;;
2602;SDS011;1311;47.966;7.958;2023-04-03T01:41:06;1.50;;;1.40;;
2602;SDS011;1311;47.966;7.958;2023-04-03T01:43:33;2.00;;;1.30;;
2602;SDS011;1311;47.966;7.958;2023-04-03T01:45:59;1.33;;;1.23;;
2602;SDS011;1311;47.966;7.958;2023-04-03T01:48:26;1.53;;;1.43;;
2602;SDS011;1311;47.966;7.958;2023-04-03T01:50:54;1.20;;;1.10;;
2602;SDS011;1311;47.966;7.958;2023-04-03T01:53:21;1.30;;;1.20;;
2602;SDS011;1311;47.966;7.958;2023-04-03T01:55:48;1.23;;;1.10;;
2602;SDS011;1311;47.966;7.958;2023-04-03T01:58:15;1.37;;;1.27;;
2602;SDS011;1311;47.966;7.958;2023-04-03T02:00:42;1.47;;;1.10;;
2602;SDS011;1311;47.966;7.958;2023-04-03T02:03:08;1.27;;;1.17;;
2602;SDS011;1311;47.966;7.958;2023-04-03T02:05:35;2.50;;;1.20;;
2602;SDS011;1311;47.966;7.958;2023-04-03T02:08:03;1.30;;;1.20;;
2602;SDS011;1311;47.966;7.958;2023-04-03T02:10:30;2.37;;;1.00;;
2602;SDS011;1311;47.966;7.958;2023-04-03T02:12:57;1.50;;;1.40;;
2602;SDS011;1311;47.966;7.958;2023-04-03T02:15:24;1.20;;;1.13;;
2602;SDS011;1311;47.966;7.958;2023-04-03T02:17:51;5.23;;;1.37;;
2602;SDS011;1311;47.966;7.958;2023-04-03T02:20:18;0.97;;;0.97;;
2602;SDS011;1311;47.966;7.958;2023-04-03T02:22:45;1.30;;;1.20;;
2602;SDS011;1311;47.966;7.958;2023-04-03T02:25:13;1.40;;;1.30;;
2602;SDS011;1311;47.966;7.958;2023-04-03T02:27:40;1.40;;;1.30;;
2602;SDS011;1311;47.966;7.958;2023-04-03T02:30:07;1.43;;;1.20;;
2602;SDS011;1311;47.966;7.958;2023-04-03T02:32:35;0.97;;;0.93;;
2602;SDS011;1311;47.966;7.958;2023-04-03T02:35:02;1.33;;;1.23;;
2602;SDS011;1311;47.966;7.958;2023-04-03T02:37:30;1.30;;;1.20;;
2602;SDS011;1311;47.966;7.958;2023-04-03T02:39:56;0.97;;;0.97;;
2602;SDS011;1311;47.966;7.958;2023-04-03T02:42:24;1.30;;;1.20;;
2602;SDS011;1311;47.966;7.958;2023-04-03T02:44:51;1.27;;;1.20;;
2602;SDS011;1311;47.966;7.958;2023-04-03T02:47:18;1.40;;;1.30;;
2602;SDS011;1311;47.966;7.958;2023-04-03T02:49:45;0.90;;;0.90;;
2602;SDS011;1311;47.966;7.958;2023-04-03T02:52:11;1.30;;;1.03;;
2602;SDS011;1311;47.966;7.958;2023-04-03T02:54:38;0.93;;;0.93;;
2602;SDS011;1311;47.966;7.958;2023-04-03T02:57:05;1.20;;;1.10;;
2602;SDS011;1311;47.966;7.958;2023-04-03T02:59:35;2.10;;;1.13;;
2602;SDS011;1311;47.966;7.958;2023-04-03T03:02:02;1.00;;;1.00;;
2602;SDS011;1311;47.966;7.958;2023-04-03T03:04:28;1.10;;;1.00;;
2602;SDS011;1311;47.966;7.958;2023-04-03T03:06:55;1.40;;;1.30;;
2602;SDS011;1311;47.966;7.958;2023-04-03T03:09:22;1.00;;;1.00;;
2602;SDS011;1311;47.966;7.958;2023-04-03T03:11:48;1.23;;;1.13;;
2602;SDS011;1311;47.966;7.958;2023-04-03T03:14:15;1.10;;;1.00;;
2602;SDS011;1311;47.966;7.958;2023-04-03T03:16:43;1.20;;;1.10;;
2602;SDS011;1311;47.966;7.958;2023-04-03T03:19:10;1.20;;;1.10;;
2602;SDS011;1311;47.966;7.958;2023-04-03T03:21:37;1.07;;;1.03;;
2602;SDS011;1311;47.966;7.958;2023-04-03T03:24:04;1.50;;;1.23;;
2602;SDS011;1311;47.966;7.958;2023-04-03T03:26:31;1.63;;;1.53;;
2602;SDS011;1311;47.966;7.958;2023-04-03T03:28:57;1.17;;;1.10;;
2602;SDS011;1311;47.966;7.958;2023-04-03T03:31:24;1.83;;;1.40;;
2602;SDS011;1311;47.966;7.958;2023-04-03T03:33:52;0.87;;;0.80;;
2602;SDS011;1311;47.966;7.958;2023-04-03T03:36:21;1.33;;;1.23;;
2602;SDS011;1311;47.966;7.958;2023-04-03T03:38:48;1.37;;;1.27;;
2602;SDS011;1311;47.966;7.958;2023-04-03T03:41:14;1.30;;;1.20;;
2602;SDS011;1311;47.966;7.958;2023-04-03T03:43:41;1.63;;;1.20;;
2602;SDS011;1311;47.966;7.958;2023-04-03T03:46:08;1.10;;;1.00;;
2602;SDS011;1311;47.966;7.958;2023-04-03T03:48:34;1.20;;;1.10;;
2602;SDS011;1311;47.966;7.958;2023-04-03T03:51:03;1.90;;;1.20;;
2602;SDS011;1311;47.966;7.958;2023-04-03T03:53:29;1.77;;;1.40;;
2602;SDS011;1311;47.966;7.958;2023-04-03T03:55:56;1.63;;;1.53;;
2602;SDS011;1311;47.966;7.958;2023-04-03T03:58:23;1.50;;;1.40;;
2602;SDS011;1311;47.966;7.958;2023-04-03T04:00:49;1.57;;;1.47;;
2602;SDS011;1311;47.966;7.958;2023-04-03T04:03:16;1.60;;;1.50;;
2602;SDS011;1311;47.966;7.958;2023-04-03T04:05:43;1.60;;;1.50;;
2602;SDS011;1311;47.966;7.958;2023-04-03T04:08:11;2.10;;;1.43;;
2602;SDS011;1311;47.966;7.958;2023-04-03T04:10:38;1.50;;;1.40;;
2602;SDS011;1311;47.966;7.958;2023-04-03T04:13:05;1.70;;;1.60;;
2602;SDS011;1311;47.966;7.958;2023-04-03T04:15:31;1.60;;;1.50;;
2602;SDS011;1311;47.966;7.958;2023-04-03T04:17:58;1.97;;;1.80;;
2602;SDS011;1311;47.966;7.958;2023-04-03T04:20:25;1.87;;;1.77;;
2602;SDS011;1311;47.966;7.958;2023-04-03T04:22:52;1.80;;;1.70;;
2602;SDS011;1311;47.966;7.958;2023-04-03T04:25:20;2.30;;;2.10;;
2602;SDS011;1311;47.966;7.958;2023-04-03T04:27:47;2.90;;;2.37;;
2602;SDS011;1311;47.966;7.958;2023-04-03T04:30:13;2.10;;;1.90;;
2602;SDS011;1311;47.966;7.958;2023-04-03T04:32:41;2.20;;;2.00;;
2602;SDS011;1311;47.966;7.958;2023-04-03T04:35:08;2.40;;;2.20;;
2602;SDS011;1311;47.966;7.958;2023-04-03T04:37:35;2.37;;;2.17;;
2602;SDS011;1311;47.966;7.958;2023-04-03T04:40:02;1.67;;;1.57;;
2602;SDS011;1311;47.966;7.958;2023-04-03T04:42:30;1.67;;;1.57;;
2602;SDS011;1311;47.966;7.958;2023-04-03T04:44:57;2.30;;;1.53;;
2602;SDS011;1311;47.966;7.958;2023-04-03T04:47:23;2.10;;;1.80;;
2602;SDS011;1311;47.966;7.958;2023-04-03T04:49:50;2.60;;;2.40;;
2602;SDS011;1311;47.966;7.958;2023-04-03T04:52:17;2.10;;;1.90;;
2602;SDS011;1311;47.966;7.958;2023-04-03T04:54:44;2.30;;;2.10;;
2602;SDS011;1311;47.966;7.958;2023-04-03T04:57:10;2.43;;;2.23;;
2602;SDS011;1311;47.966;7.958;2023-04-03T04:59:38;2.47;;;2.07;;
2602;SDS011;1311;47.966;7.958;2023-04-03T05:02:05;2.37;;;2.23;;
2602;SDS011;1311;47.966;7.958;2023-04-03T05:04:32;2.30;;;2.10;;
2602;SDS011;1311;47.966;7.958;2023-04-03T05:06:59;3.60;;;2.03;;
2602;SDS011;1311;47.966;7.958;2023-04-03T05:09:25;2.10;;;1.90;;
2602;SDS011;1311;47.966;7.958;2023-04-03T05:11:52;1.87;;;1.77;;
2602;SDS011;1311;47.966;7.958;2023-04-03T05:14:19;2.00;;;1.80;;
2602;SDS011;1311;47.966;7.958;2023-04-03T05:16:47;1.70;;;1.60;;
2602;SDS011;1311;47.966;7.958;2023-04-03T05:19:17;3.70;;;2.70;;
2602;SDS011;1311;47.966;7.958;2023-04-03T05:21:44;2.00;;;1.90;;
2602;SDS011;1311;47.966;7.958;2023-04-03T05:24:11;2.33;;;2.13;;
2602;SDS011;1311;47.966;7.958;2023-04-03T05:26:37;2.63;;;2.20;;
2602;SDS011;1311;47.966;7.958;2023-04-03T05:29:04;2.20;;;2.00;;
2602;SDS011;1311;47.966;7.958;2023-04-03T05:31:31;1.87;;;1.77;;
2602;SDS011;1311;47.966;7.958;2023-04-03T05:33:59;2.03;;;1.80;;
2602;SDS011;1311;47.966;7.958;2023-04-03T05:36:26;1.97;;;1.83;;
2602;SDS011;1311;47.966;7.958;2023-04-03T05:38:53;1.73;;;1.63;;
2602;SDS011;1311;47.966;7.958;2023-04-03T05:41:21;1.90;;;1.80;;
2602;SDS011;1311;47.966;7.958;2023-04-03T05:43:48;2.10;;;2.00;;
2602;SDS011;1311;47.966;7.958;2023-04-03T05:46:15;1.63;;;1.53;;
2602;SDS011;1311;47.966;7.958;2023-04-03T05:48:43;2.10;;;1.90;;
2602;SDS011;1311;47.966;7.958;2023-04-03T05:51:13;1.60;;;1.50;;
2602;SDS011;1311;47.966;7.958;2023-04-03T05:53:42;2.20;;;2.00;;
2602;SDS011;1311;47.966;7.958;2023-04-03T05:56:09;2.00;;;1.80;;
2602;SDS011;1311;47.966;7.958;2023-04-03T05:58:36;2.20;;;2.00;;
2602;SDS011;1311;47.966;7.958;2023-04-03T06:01:03;2.40;;;2.20;;
2602;SDS011;1311;47.966;7.958;2023-04-03T06:03:30;2.03;;;1.83;;
2602;SDS011;1311;47.966;7.958;2023-04-03T06:05:57;2.47;;;2.27;;
2602;SDS011;1311;47.966;7.958;2023-04-03T06:08:25;2.80;;;2.57;;
2602;SDS011;1311;47.966;7.958;2023-04-03T06:10:52;2.00;;;1.90;;
2602;SDS011;1311;47.966;7.958;2023-04-03T06:13:18;2.40;;;2.00;;
2602;SDS011;1311;47.966;7.958;2023-04-03T06:15:45;2.00;;;1.90;;
2602;SDS011;1311;47.966;7.958;2023-04-03T06:18:12;2.40;;;2.20;;
2602;SDS011;1311;47.966;7.958;2023-04-03T06:20:39;1.73;;;1.60;;
2602;SDS011;1311;47.966;7.958;2023-04-03T06:23:06;2.37;;;2.17;;
2602;SDS011;1311;47.966;7.958;2023-04-03T06:25:34;3.63;;;1.93;;
2602;SDS011;1311;47.966;7.958;2023-04-03T06:28:00;2.13;;;1.90;;
2602;SDS011;1311;47.966;7.958;2023-04-03T06:30:27;2.43;;;1.90;;
2602;SDS011;1311;47.966;7.958;2023-04-03T06:32:54;1.50;;;1.40;;
2602;SDS011;1311;47.966;7.958;2023-04-03T06:35:21;2.90;;;2.00;;
2602;SDS011;1311;47.966;7.958;2023-04-03T06:37:48;2.07;;;1.87;;
2602;SDS011;1311;47.966;7.958;2023-04-03T06:40:15;1.80;;;1.70;;
2602;SDS011;1311;47.966;7.958;2023-04-03T06:42:48;1.70;;;1.60;;
2602;SDS011;1311;47.966;7.958;2023-04-03T06:45:16;1.83;;;1.50;;
2602;SDS011;1311;47.966;7.958;2023-04-03T06:47:43;1.70;;;1.60;;
2602;SDS011;1311;47.966;7.958;2023-04-03T06:50:10;2.97;;;1.83;;
2602;SDS011;1311;47.966;7.958;2023-04-03T06:52:39;1.67;;;1.57;;
2602;SDS011;1311;47.966;7.958;2023-04-03T06:55:06;2.27;;;2.07;;
2602;SDS011;1311;47.966;7.958;2023-04-03T06:57:34;3.03;;;1.60;;
2602;SDS011;1311;47.966;7.958;2023-04-03T07:00:03;2.03;;;1.80;;
2602;SDS011;1311;47.966;7.958;2023-04-03T07:02:32;2.10;;;2.00;;
2602;SDS011;1311;47.966;7.958;2023-04-03T07:04:59;1.70;;;1.60;;
2602;SDS011;1311;47.966;7.958;2023-04-03T07:07:26;2.20;;;1.77;;
2602;SDS011;1311;47.966;7.958;2023-04-03T07:09:53;2.50;;;2.10;;
2602;SDS011;1311;47.966;7.958;2023-04-03T07:12:19;1.90;;;1.80;;
2602;SDS011;1311;47.966;7.958;2023-04-03T07:14:46;2.47;;;1.93;;
2602;SDS011;1311;47.966;7.958;2023-04-03T07:17:14;3.00;;;2.47;;
2602;SDS011;1311;47.966;7.958;2023-04-03T07:19:41;2.60;;;2.13;;
2602;SDS011;1311;47.966;7.958;2023-04-03T07:22:08;1.97;;;1.83;;
2602;SDS011;1311;47.966;7.958;2023-04-03T07:24:36;1.77;;;1.67;;
2602;SDS011;1311;47.966;7.958;2023-04-03T07:27:03;2.70;;;2.30;;
2602;SDS011;1311;47.966;7.958;2023-04-03T07:29:30;3.00;;;2.67;;
2602;SDS011;1311;47.966;7.958;2023-04-03T07:31:57;3.00;;;2.50;;
2602;SDS011;1311;47.966;7.958;2023-04-03T07:34:25;2.40;;;2.20;;
2602;SDS011;1311;47.966;7.958;2023-04-03T07:36:52;2.60;;;2.40;;
2602;SDS011;1311;47.966;7.958;2023-04-03T07:39:19;2.20;;;2.00;;
2602;SDS011;1311;47.966;7.958;2023-04-03T07:41:46;2.30;;;2.10;;
2602;SDS011;1311;47.966;7.958;2023-04-03T07:44:13;3.00;;;2.43;;
2602;SDS011;1311;47.966;7.958;2023-04-03T07:46:40;2.83;;;2.53;;
2602;SDS011;1311;47.966;7.958;2023-04-03T07:49:07;2.90;;;2.70;;
2602;SDS011;1311;47.966;7.958;2023-04-03T07:51:35;2.50;;;2.27;;
2602;SDS011;1311;47.966;7.958;2023-04-03T07:54:02;3.23;;;2.57;;
2602;SDS011;1311;47.966;7.958;2023-04-03T07:56:29;2.47;;;2.27;;
2602;SDS011;1311;47.966;7.958;2023-04-03T07:58:57;4.03;;;3.00;;
2602;SDS011;1311;47.966;7.958;2023-04-03T08:01:23;3.20;;;2.90;;
2602;SDS011;1311;47.966;7.958;2023-04-03T08:03:50;2.90;;;2.60;;
2602;SDS011;1311;47.966;7.958;2023-04-03T08:06:17;3.03;;;2.77;;
2602;SDS011;1311;47.966;7.958;2023-04-03T08:08:45;2.53;;;2.30;;
2602;SDS011;1311;47.966;7.958;2023-04-03T08:11:12;3.70;;;3.40;;
2602;SDS011;1311;47.966;7.958;2023-04-03T08:13:39;2.83;;;2.47;;
2602;SDS011;1311;47.966;7.958;2023-04-03T08:16:09;3.27;;;2.97;;
2602;SDS011;1311;47.966;7.958;2023-04-03T08:18:37;3.30;;;3.00;;
2602;SDS011;1311;47.966;7.958;2023-04-03T08:21:07;3.10;;;2.90;;
2602;SDS011;1311;47.966;7.958;2023-04-03T08:23:35;3.27;;;2.80;;
2602;SDS011;1311;47.966;7.958;2023-04-03T08:26:08;3.13;;;2.83;;
2602;SDS011;1311;47.966;7.958;2023-04-03T08:28:36;3.90;;;3.00;;
2602;SDS011;1311;47.966;7.958;2023-04-03T08:31:03;3.23;;;2.93;;
2602;SDS011;1311;47.966;7.958;2023-04-03T08:33:32;3.60;;;3.30;;
2602;SDS011;1311;47.966;7.958;2023-04-03T08:36:03;3.63;;;3.00;;
2602;SDS011;1311;47.966;7.958;2023-04-03T08:38:30;4.57;;;3.87;;
2602;SDS011;1311;47.966;7.958;2023-04-03T08:41:01;4.80;;;3.50;;
2602;SDS011;1311;47.966;7.958;2023-04-03T08:43:39;4.43;;;3.57;;
2602;SDS011;1311;47.966;7.958;2023-04-03T08:46:19;4.30;;;3.47;;
2602;SDS011;1311;47.966;7.958;2023-04-03T08:48:51;3.20;;;2.90;;
2602;SDS011;1311;47.966;7.958;2023-04-03T08:51:20;2.97;;;2.77;;
2602;SDS011;1311;47.966;7.958;2023-04-03T08:53:50;4.07;;;3.47;;
2602;SDS011;1311;47.966;7.958;2023-04-03T08:56:23;3.37;;;3.07;;
2602;SDS011;1311;47.966;7.958;2023-04-03T08:58:52;3.53;;;3.27;;
2602;SDS011;1311;47.966;7.958;2023-04-03T09:01:24;3.70;;;3.40;;
2602;SDS011;1311;47.966;7.958;2023-04-03T09:03:55;3.77;;;3.37;;
2602;SDS011;1311;47.966;7.958;2023-04-03T09:06:22;3.67;;;3.30;;
2602;SDS011;1311;47.966;7.958;2023-04-03T09:08:56;3.50;;;3.20;;
2602;SDS011;1311;47.966;7.958;2023-04-03T09:11:35;3.70;;;3.40;;
2602;SDS011;1311;47.966;7.958;2023-04-03T09:14:14;3.07;;;2.77;;
2602;SDS011;1311;47.966;7.958;2023-04-03T09:16:49;3.63;;;3.33;;
2602;SDS011;1311;47.966;7.958;2023-04-03T09:19:21;3.50;;;3.00;;
2602;SDS011;1311;47.966;7.958;2023-04-03T09:21:59;5.13;;;3.50;;
2602;SDS011;1311;47.966;7.958;2023-04-03T09:24:29;3.47;;;3.13;;
2602;SDS011;1311;47.966;7.958;2023-04-03T09:27:01;4.53;;;2.90;;
2602;SDS011;1311;47.966;7.958;2023-04-03T09:29:32;3.30;;;3.00;;
2602;SDS011;1311;47.966;7.958;2023-04-03T09:32:03;2.70;;;2.50;;
2602;SDS011;1311;47.966;7.958;2023-04-03T09:34:45;3.60;;;2.70;;
2602;SDS011;1311;47.966;7.958;2023-04-03T09:37:15;2.33;;;2.13;;
2602;SDS011;1311;47.966;7.958;2023-04-03T09:40:00;2.33;;;2.13;;
2602;SDS011;1311;47.966;7.958;2023-04-03T09:42:27;3.13;;;2.60;;
2602;SDS011;1311;47.966;7.958;2023-04-03T09:44:58;3.37;;;2.30;;
2602;SDS011;1311;47.966;7.958;2023-04-03T09:47:26;2.40;;;2.13;;
2602;SDS011;1311;47.966;7.958;2023-04-03T09:50:09;2.10;;;1.90;;
2602;SDS011;1311;47.966;7.958;2023-04-03T09:52:45;2.00;;;1.87;;
2602;SDS011;1311;47.966;7.958;2023-04-03T09:55:13;2.30;;;2.10;;
2602;SDS011;1311;47.966;7.958;2023-04-03T09:57:41;1.90;;;1.80;;
2602;SDS011;1311;47.966;7.958;2023-04-03T10:00:18;1.87;;;1.77;;
2602;SDS011;1311;47.966;7.958;2023-04-03T10:02:49;4.20;;;2.47;;
2602;SDS011;1311;47.966;7.958;2023-04-03T10:08:10;2.23;;;2.00;;
2602;SDS011;1311;47.966;7.958;2023-04-03T10:10:46;2.20;;;1.90;;
2602;SDS011;1311;47.966;7.958;2023-04-03T10:13:14;2.00;;;1.90;;
2602;SDS011;1311;47.966;7.958;2023-04-03T10:15:48;2.13;;;1.90;;
2602;SDS011;1311;47.966;7.958;2023-04-03T10:18:26;2.03;;;1.83;;
2602;SDS011;1311;47.966;7.958;2023-04-03T10:20:58;1.93;;;1.83;;
2602;SDS011;1311;47.966;7.958;2023-04-03T10:23:28;3.00;;;2.07;;
2602;SDS011;1311;47.966;7.958;2023-04-03T10:26:02;2.63;;;2.20;;
2602;SDS011;1311;47.966;7.958;2023-04-03T10:28:41;1.70;;;1.60;;
2602;SDS011;1311;47.966;7.958;2023-04-03T10:31:16;2.23;;;1.90;;
2602;SDS011;1311;47.966;7.958;2023-04-03T10:33:52;3.20;;;2.40;;
2602;SDS011;1311;47.966;7.958;2023-04-03T10:36:27;2.07;;;1.70;;
2602;SDS011;1311;47.966;7.958;2023-04-03T10:39:05;2.20;;;2.00;;
2602;SDS011;1311;47.966;7.958;2023-04-03T10:41:44;2.30;;;2.10;;
2602;SDS011;1311;47.966;7.958;2023-04-03T10:44:25;4.20;;;2.40;;
2602;SDS011;1311;47.966;7.958;2023-04-03T10:47:05;2.20;;;2.00;;
2602;SDS011;1311;47.966;7.958;2023-04-03T10:49:38;1.80;;;1.70;;
2602;SDS011;1311;47.966;7.958;2023-04-03T10:52:17;3.80;;;2.50;;
2602;SDS011;1311;47.966;7.958;2023-04-03T10:54:49;2.33;;;1.83;;
2602;SDS011;1311;47.966;7.958;2023-04-03T10:57:23;2.40;;;2.20;;
2602;SDS011;1311;47.966;7.958;2023-04-03T10:59:51;3.23;;;2.00;;
2602;SDS011;1311;47.966;7.958;2023-04-03T11:02:25;2.10;;;1.80;;
2602;SDS011;1311;47.966;7.958;2023-04-03T11:04:55;2.10;;;1.90;;
2602;SDS011;1311;47.966;7.958;2023-04-03T11:07:26;2.20;;;2.00;;
2602;SDS011;1311;47.966;7.958;2023-04-03T11:09:57;2.43;;;1.60;;
2602;SDS011;1311;47.966;7.958;2023-04-03T11:12:39;1.80;;;1.70;;
2602;SDS011;1311;47.966;7.958;2023-04-03T11:15:11;3.00;;;2.50;;
2602;SDS011;1311;47.966;7.958;2023-04-03T11:17:41;2.33;;;2.00;;
2602;SDS011;1311;47.966;7.958;2023-04-03T11:20:14;2.50;;;2.30;;
2602;SDS011;1311;47.966;7.958;2023-04-03T11:22:45;3.10;;;2.30;;
2602;SDS011;1311;47.966;7.958;2023-04-03T11:25:18;2.20;;;2.00;;
2602;SDS011;1311;47.966;7.958;2023-04-03T11:27:48;2.70;;;2.50;;
2602;SDS011;1311;47.966;7.958;2023-04-03T11:30:20;3.20;;;2.10;;
2602;SDS011;1311;47.966;7.958;2023-04-03T11:35:58;8.90;;;2.20;;
2602;SDS011;1311;47.966;7.958;2023-04-03T11:38:30;2.30;;;2.10;;
2602;SDS011;1311;47.966;7.958;2023-04-03T11:41:01;5.20;;;2.87;;
2602;SDS011;1311;47.966;7.958;2023-04-03T11:43:32;3.03;;;2.63;;
2602;SDS011;1311;47.966;7.958;2023-04-03T11:45:59;4.13;;;2.50;;
2602;SDS011;1311;47.966;7.958;2023-04-03T12:03:07;2.57;;;2.10;;
2602;SDS011;1311;47.966;7.958;2023-04-03T12:09:22;2.57;;;2.37;;
2602;SDS011;1311;47.966;7.958;2023-04-03T12:11:54;2.07;;;1.80;;
2602;SDS011;1311;47.966;7.958;2023-04-03T12:14:22;2.40;;;2.17;;
2602;SDS011;1311;47.966;7.958;2023-04-03T12:16:52;3.93;;;2.47;;
2602;SDS011;1311;47.966;7.958;2023-04-03T12:19:35;2.93;;;2.50;;
2602;SDS011;1311;47.966;7.958;2023-04-03T12:22:15;2.40;;;2.20;;
2602;SDS011;1311;47.966;7.958;2023-04-03T12:24:47;3.07;;;2.30;;
2602;SDS011;1311;47.966;7.958;2023-04-03T12:30:06;2.63;;;2.43;;
2602;SDS011;1311;47.966;7.958;2023-04-03T12:32:51;2.30;;;1.97;;
2602;SDS011;1311;47.966;7.958;2023-04-03T12:35:29;2.03;;;1.87;;
2602;SDS011;1311;47.966;7.958;2023-04-03T12:38:11;2.57;;;2.37;;
2602;SDS011;1311;47.966;7.958;2023-04-03T12:40:55;2.67;;;2.47;;
2602;SDS011;1311;47.966;7.958;2023-04-03T12:43:36;3.13;;;2.53;;
2602;SDS011;1311;47.966;7.958;2023-04-03T12:46:11;3.20;;;2.23;;
2602;SDS011;1311;47.966;7.958;2023-04-03T12:48:47;2.50;;;2.30;;
2602;SDS011;1311;47.966;7.958;2023-04-03T12:51:16;2.30;;;2.10;;
2602;SDS011;1311;47.966;7.958;2023-04-03T12:53:46;2.60;;;2.30;;
2602;SDS011;1311;47.966;7.958;2023-04-03T12:56:21;2.17;;;2.03;;
2602;SDS011;1311;47.966;7.958;2023-04-03T12:58:50;2.93;;;2.50;;
2602;SDS011;1311;47.966;7.958;2023-04-03T13:01:18;3.70;;;2.20;;
2602;SDS011;1311;47.966;7.958;2023-04-03T13:03:48;2.50;;;2.30;;
2602;SDS011;1311;47.966;7.958;2023-04-03T13:06:18;2.53;;;2.20;;
2602;SDS011;1311;47.966;7.958;2023-04-03T13:08:51;2.60;;;2.40;;
2602;SDS011;1311;47.966;7.958;2023-04-03T13:11:21;2.60;;;2.40;;
2602;SDS011;1311;47.966;7.958;2023-04-03T13:13:57;2.40;;;2.20;;
2602;SDS011;1311;47.966;7.958;2023-04-03T13:16:25;2.10;;;2.00;;
2602;SDS011;1311;47.966;7.958;2023-04-03T13:18:52;2.30;;;2.10;;
2602;SDS011;1311;47.966;7.958;2023-04-03T13:21:20;2.60;;;2.40;;
2602;SDS011;1311;47.966;7.958;2023-04-03T13:23:51;2.80;;;2.50;;
2602;SDS011;1311;47.966;7.958;2023-04-03T13:26:22;4.67;;;2.30;;
2602;SDS011;1311;47.966;7.958;2023-04-03T13:28:52;2.60;;;2.40;;
2602;SDS011;1311;47.966;7.958;2023-04-03T13:31:22;2.13;;;1.93;;
2602;SDS011;1311;47.966;7.958;2023-04-03T13:33:54;3.60;;;2.47;;
2602;SDS011;1311;47.966;7.958;2023-04-03T13:36:24;2.17;;;1.97;;
2602;SDS011;1311;47.966;7.958;2023-04-03T13:38:57;2.83;;;2.10;;
2602;SDS011;1311;47.966;7.958;2023-04-03T13:41:29;2.10;;;1.90;;
2602;SDS011;1311;47.966;7.958;2023-04-03T13:44:15;3.00;;;2.70;;
2602;SDS011;1311;47.966;7.958;2023-04-03T13:46:43;2.20;;;2.00;;
2602;SDS011;1311;47.966;7.958;2023-04-03T13:49:19;2.33;;;2.13;;
2602;SDS011;1311;47.966;7.958;2023-04-03T13:51:47;3.07;;;2.67;;
2602;SDS011;1311;47.966;7.958;2023-04-03T13:54:17;2.60;;;2.40;;
2602;SDS011;1311;47.966;7.958;2023-04-03T13:56:51;3.13;;;2.17;;
2602;SDS011;1311;47.966;7.958;2023-04-03T13:59:22;2.60;;;1.87;;
2602;SDS011;1311;47.966;7.958;2023-04-03T14:01:51;2.80;;;2.47;;
2602;SDS011;1311;47.966;7.958;2023-04-03T14:04:20;4.33;;;3.20;;
2602;SDS011;1311;47.966;7.958;2023-04-03T14:06:48;2.40;;;2.20;;
2602;SDS011;1311;47.966;7.958;2023-04-03T14:09:16;2.10;;;1.90;;
2602;SDS011;1311;47.966;7.958;2023-04-03T14:11:46;2.23;;;2.03;;
2602;SDS011;1311;47.966;7.958;2023-04-03T14:14:15;2.43;;;2.23;;
2602;SDS011;1311;47.966;7.958;2023-04-03T14:16:47;1.97;;;1.80;;
2602;SDS011;1311;47.966;7.958;2023-04-03T14:19:18;2.60;;;1.90;;
2602;SDS011;1311;47.966;7.958;2023-04-03T14:21:47;3.20;;;2.33;;
2602;SDS011;1311;47.966;7.958;2023-04-03T14:24:15;1.80;;;1.70;;
2602;SDS011;1311;47.966;7.958;2023-04-03T14:26:44;2.10;;;1.77;;
2602;SDS011;1311;47.966;7.958;2023-04-03T14:29:11;2.90;;;2.30;;
2602;SDS011;1311;47.966;7.958;2023-04-03T14:31:41;2.03;;;1.90;;
2602;SDS011;1311;47.966;7.958;2023-04-03T14:34:10;2.30;;;2.10;;
2602;SDS011;1311;47.966;7.958;2023-04-03T14:36:38;2.60;;;2.10;;
2602;SDS011;1311;47.966;7.958;2023-04-03T14:39:06;3.20;;;2.30;;
2602;SDS011;1311;47.966;7.958;2023-04-03T14:41:33;3.27;;;2.43;;
2602;SDS011;1311;47.966;7.958;2023-04-03T14:44:00;2.60;;;2.40;;
2602;SDS011;1311;47.966;7.958;2023-04-03T14:46:28;2.10;;;2.00;;
2602;SDS011;1311;47.966;7.958;2023-04-03T14:48:58;2.00;;;1.80;;
2602;SDS011;1311;47.966;7.958;2023-04-03T14:51:25;2.60;;;2.00;;
2602;SDS011;1311;47.966;7.958;2023-04-03T14:53:53;2.50;;;2.03;;
2602;SDS011;1311;47.966;7.958;2023-04-03T14:56:21;2.37;;;2.23;;
2602;SDS011;1311;47.966;7.958;2023-04-03T14:58:52;2.53;;;2.10;;
2602;SDS011;1311;47.966;7.958;2023-04-03T15:01:22;2.20;;;2.00;;
2602;SDS011;1311;47.966;7.958;2023-04-03T15:03:49;3.73;;;2.40;;
2602;SDS011;1311;47.966;7.958;2023-04-03T15:06:17;2.30;;;2.10;;
2602;SDS011;1311;47.966;7.958;2023-04-03T15:08:45;3.33;;;2.33;;
2602;SDS011;1311;47.966;7.958;2023-04-03T15:11:13;3.80;;;2.73;;
2602;SDS011;1311;47.966;7.958;2023-04-03T15:13:40;3.73;;;2.43;;
2602;SDS011;1311;47.966;7.958;2023-04-03T15:16:11;3.10;;;2.10;;
2602;SDS011;1311;47.966;7.958;2023-04-03T15:18:41;2.23;;;2.03;;
2602;SDS011;1311;47.966;7.958;2023-04-03T15:21:08;3.00;;;2.40;;
2602;SDS011;1311;47.966;7.958;2023-04-03T15:23:36;2.23;;;2.03;;
2602;SDS011;1311;47.966;7.958;2023-04-03T15:26:03;2.40;;;2.17;;
2602;SDS011;1311;47.966;7.958;2023-04-03T15:28:31;2.33;;;2.13;;
2602;SDS011;1311;47.966;7.958;2023-04-03T15:31:00;2.37;;;2.17;;
2602;SDS011;1311;47.966;7.958;2023-04-03T15:33:27;3.17;;;2.00;;
2602;SDS011;1311;47.966;7.958;2023-04-03T15:35:55;2.30;;;2.10;;
2602;SDS011;1311;47.966;7.958;2023-04-03T15:38:22;2.70;;;2.03;;
2602;SDS011;1311;47.966;7.958;2023-04-03T15:40:50;3.80;;;2.37;;
2602;SDS011;1311;47.966;7.958;2023-04-03T15:43:16;2.53;;;1.93;;
2602;SDS011;1311;47.966;7.958;2023-04-03T15:45:43;4.20;;;1.97;;
2602;SDS011;1311;47.966;7.958;2023-04-03T15:48:10;2.77;;;1.83;;
2602;SDS011;1311;47.966;7.958;2023-04-03T15:50:38;4.23;;;2.60;;
2602;SDS011;1311;47.966;7.958;2023-04-03T15:53:05;2.00;;;1.90;;
2602;SDS011;1311;47.966;7.958;2023-04-03T15:55:33;2.23;;;2.10;;